createdAt,value
2024-03-03T00:04:16.162Z,8.00
2024-03-03T00:09:21.527Z,8.35
2024-03-03T00:14:27.261Z,7.47
2024-03-03T00:19:30.329Z,8.52
2024-03-03T00:24:33.586Z,8.45
2024-03-03T00:29:38.281Z,7.40
2024-03-03T00:34:44.822Z,8.85
2024-03-03T00:39:49.054Z,8.27
2024-03-03T00:44:54.314Z,9.93
2024-03-03T00:49:57.699Z,9.05
2024-03-03T00:55:00.744Z,9.45
2024-03-03T01:00:06.997Z,9.68
2024-03-03T01:05:11.930Z,9.03
2024-03-03T01:10:17.220Z,8.95
2024-03-03T01:15:21.712Z,7.82
2024-03-03T01:20:24.700Z,8.88
2024-03-03T01:25:31.093Z,8.85
2024-03-03T01:30:37.137Z,9.60
2024-03-03T01:35:40.144Z,9.10
2024-03-03T01:40:44.002Z,9.98
2024-03-03T01:45:48.397Z,10.43
2024-03-03T01:50:53.874Z,9.55
2024-03-03T01:55:57.028Z,9.48
2024-03-03T02:01:03.897Z,10.27
2024-03-03T02:06:07.464Z,10.60
2024-03-03T02:11:12.041Z,11.30
2024-03-03T02:16:17.536Z,12.40
2024-03-03T02:21:24.868Z,11.55
2024-03-03T02:31:34.402Z,10.27
2024-03-03T02:36:41.197Z,11.93
2024-03-03T02:41:44.341Z,12.02
2024-03-03T02:46:49.583Z,11.38
2024-03-03T02:51:57.143Z,11.65
2024-03-03T02:57:02.634Z,10.95
2024-03-03T03:02:06.245Z,11.73
2024-03-03T03:07:10.859Z,11.13
2024-03-03T03:12:13.915Z,9.95
2024-03-03T03:17:17.047Z,11.32
2024-03-03T03:22:22.546Z,11.65
2024-03-03T03:27:25.619Z,10.27
2024-03-03T03:32:28.626Z,10.68
2024-03-03T03:37:33.414Z,10.23
2024-03-03T03:42:36.372Z,9.70
2024-03-03T03:47:39.290Z,11.60
2024-03-03T03:52:43.924Z,11.75
2024-03-03T03:57:47.114Z,10.30
2024-03-03T04:02:50.285Z,10.63
2024-03-03T04:07:54.635Z,12.27
2024-03-03T04:12:57.986Z,12.85
2024-03-03T04:18:01.019Z,12.82
2024-03-03T04:23:05.554Z,10.95
2024-03-03T04:28:12.264Z,11.32
2024-03-03T04:33:15.292Z,11.35
2024-03-03T04:38:19.832Z,10.02
2024-03-03T04:43:22.965Z,11.60
2024-03-03T04:48:28.222Z,12.48
2024-03-03T04:53:34.460Z,10.73
2024-03-03T04:58:37.361Z,11.67
2024-03-03T05:03:40.921Z,11.15
2024-03-03T05:08:46.238Z,10.35
2024-03-03T05:13:49.210Z,11.02
2024-03-03T05:18:52.173Z,11.27
2024-03-03T05:23:56.491Z,10.02
2024-03-03T05:29:00.383Z,10.95
2024-03-03T05:34:05.037Z,11.45
2024-03-03T05:39:09.836Z,11.32
2024-03-03T05:44:12.671Z,11.55
2024-03-03T05:49:17.258Z,10.05
2024-03-03T05:54:22.117Z,10.25
2024-03-03T05:59:26.281Z,10.48
2024-03-03T06:04:29.644Z,9.95
2024-03-03T06:09:35.872Z,11.98
2024-03-03T06:14:38.839Z,8.83
2024-03-03T06:19:43.273Z,10.98
2024-03-03T06:24:47.567Z,11.02
2024-03-03T06:29:50.502Z,11.10
2024-03-03T06:34:53.410Z,11.38
2024-03-03T06:39:59.583Z,10.63
2024-03-03T06:45:02.687Z,10.27
2024-03-03T06:50:07.218Z,10.82
2024-03-03T06:55:12.130Z,11.40
2024-03-03T07:00:15.997Z,12.18
2024-03-03T07:05:19.386Z,12.25
2024-03-03T07:10:23.780Z,11.45
2024-03-03T07:15:27.118Z,9.98
2024-03-03T07:20:30.022Z,10.25
2024-03-03T07:25:34.189Z,11.32
2024-03-03T07:30:37.659Z,12.38
2024-03-03T07:35:40.831Z,12.57
2024-03-03T07:40:45.884Z,10.82
2024-03-03T07:45:48.948Z,11.60
2024-03-03T07:50:52.140Z,11.50
2024-03-03T07:55:56.386Z,11.70
2024-03-03T08:01:01.063Z,8.88
2024-03-03T08:06:04.249Z,11.05
2024-03-03T08:11:08.629Z,11.10
2024-03-03T08:16:12.742Z,11.32
2024-03-03T08:21:15.751Z,11.88
2024-03-03T08:26:20.494Z,11.75
2024-03-03T08:31:24.362Z,11.43
2024-03-03T08:36:27.298Z,11.57
2024-03-03T08:41:33.032Z,11.88
2024-03-03T08:46:36.018Z,11.65
2024-03-03T08:51:40.675Z,11.02
2024-03-03T08:56:45.253Z,12.57
2024-03-03T09:01:48.274Z,11.77
2024-03-03T09:06:51.720Z,11.35
2024-03-03T09:11:56.140Z,11.75
2024-03-03T09:16:58.992Z,11.48
2024-03-03T09:22:02.110Z,12.02
2024-03-03T09:27:06.963Z,11.40
2024-03-03T09:32:09.958Z,13.07
2024-03-03T09:37:14.240Z,13.88
2024-03-03T09:42:19.110Z,12.80
2024-03-03T09:47:24.104Z,12.77
2024-03-03T09:52:31.885Z,11.52
2024-03-03T09:57:37.996Z,11.35
2024-03-03T10:02:44.131Z,10.93
2024-03-03T10:07:53.584Z,12.35
2024-03-03T10:13:00.894Z,11.60
2024-03-03T10:18:04.319Z,10.30
2024-03-03T10:23:07.918Z,11.85
2024-03-03T10:28:15.917Z,10.65
2024-03-03T10:33:21.802Z,11.00
2024-03-03T10:38:31.245Z,11.73
2024-03-03T10:43:35.477Z,11.52
2024-03-03T10:48:39.414Z,11.10
2024-03-03T10:53:42.561Z,11.52
2024-03-03T10:58:47.556Z,9.85
2024-03-03T11:03:54.182Z,17.80
2024-03-03T11:08:59.901Z,12.00
2024-03-03T11:14:12.665Z,9.60
2024-03-03T11:19:21.548Z,11.93
2024-03-03T11:24:31.639Z,9.73
2024-03-03T11:29:37.167Z,9.63
2024-03-03T11:34:41.506Z,9.73
2024-03-03T11:39:59.637Z,9.68
2024-03-03T11:45:05.378Z,9.30
2024-03-03T11:50:22.343Z,10.75
2024-03-03T11:55:27.701Z,8.98
2024-03-03T12:00:33.446Z,7.97
2024-03-03T12:05:37.629Z,8.43
2024-03-03T12:10:43.474Z,7.88
2024-03-03T12:15:48.523Z,9.10
2024-03-03T12:20:51.805Z,8.73
2024-03-03T12:25:54.806Z,8.63
2024-03-03T12:31:00.163Z,9.00
2024-03-03T12:36:04.924Z,8.85
2024-03-03T12:41:08.155Z,9.73
2024-03-03T12:46:13.266Z,7.13
2024-03-03T12:51:17.145Z,7.30
2024-03-03T12:56:22.858Z,7.88
2024-03-03T13:01:27.304Z,7.40
2024-03-03T13:06:32.261Z,7.32
2024-03-03T13:11:35.332Z,8.40
2024-03-03T13:16:39.895Z,6.65
2024-03-03T13:21:44.879Z,7.95
2024-03-03T13:26:48.703Z,7.20
2024-03-03T13:31:53.651Z,7.40
2024-03-03T13:36:56.951Z,7.05
2024-03-03T13:41:59.901Z,6.45
2024-03-03T13:47:06.746Z,6.22
2024-03-03T13:52:13.182Z,6.90
2024-03-03T13:57:17.773Z,6.57
2024-03-03T14:02:23.690Z,5.72
2024-03-03T14:07:27.885Z,5.40
2024-03-03T14:12:31.291Z,6.57
2024-03-03T14:17:37.095Z,6.63
2024-03-03T14:22:41.594Z,6.45
2024-03-03T14:27:44.654Z,5.55
2024-03-03T14:32:49.157Z,5.93
2024-03-03T14:37:53.344Z,5.60
2024-03-03T14:42:56.678Z,5.07
2024-03-03T14:48:01.249Z,4.15
2024-03-03T14:53:04.478Z,5.85
2024-03-03T14:58:09.362Z,5.45
2024-03-03T15:03:14.196Z,6.28
2024-03-03T15:08:17.427Z,5.43
2024-03-03T15:13:21.080Z,4.72
2024-03-03T15:18:26.303Z,6.22
2024-03-03T15:23:29.368Z,5.63
2024-03-03T15:28:33.139Z,5.30
2024-03-03T15:33:37.739Z,5.30
2024-03-03T15:38:41.573Z,6.07
2024-03-03T15:43:47.159Z,5.43
2024-03-03T15:48:51.456Z,5.97
2024-03-03T15:53:54.282Z,6.25
2024-03-03T15:58:58.539Z,6.35
2024-03-03T16:04:03.136Z,6.32
2024-03-03T16:09:07.828Z,6.03
2024-03-03T16:14:11.427Z,5.43
2024-03-03T16:19:15.792Z,6.07
2024-03-03T16:24:19.226Z,5.25
2024-03-03T16:29:22.566Z,5.75
2024-03-03T16:34:28.726Z,7.07
2024-03-03T16:39:32.947Z,8.00
2024-03-03T16:44:36.053Z,6.97
2024-03-03T16:49:40.376Z,10.43
2024-03-03T16:54:44.322Z,10.02
2024-03-03T16:59:47.402Z,8.40
2024-03-03T17:04:51.920Z,7.60
2024-03-03T17:09:55.431Z,7.15
2024-03-03T17:14:58.666Z,7.47
2024-03-03T17:20:05.199Z,8.40
2024-03-03T17:25:08.706Z,8.43
2024-03-03T17:30:13.699Z,9.63
2024-03-03T17:35:17.932Z,7.63
2024-03-03T17:40:21.600Z,6.53
2024-03-03T17:45:26.436Z,7.07
2024-03-03T17:50:30.755Z,7.95
2024-03-03T17:55:33.868Z,13.57
2024-03-03T18:00:37.541Z,10.70
2024-03-03T18:05:42.640Z,9.55
2024-03-03T18:10:45.911Z,10.27
2024-03-03T18:15:49.904Z,9.60
2024-03-03T18:20:54.254Z,8.35
2024-03-03T18:25:58.487Z,7.78
2024-03-03T18:31:02.465Z,7.30
2024-03-03T18:36:07.956Z,7.93
2024-03-03T18:41:11.141Z,7.85
2024-03-03T18:46:14.926Z,10.35
2024-03-03T18:51:20.642Z,12.73
2024-03-03T18:56:25.343Z,19.23
2024-03-03T19:01:28.351Z,21.38
2024-03-03T19:06:33.677Z,18.60
2024-03-03T19:11:36.727Z,16.88
2024-03-03T19:16:41.618Z,15.85
2024-03-03T19:21:47.093Z,12.30
2024-03-03T19:26:52.060Z,13.15
2024-03-03T19:31:55.358Z,16.00
2024-03-03T19:37:00.213Z,15.75
2024-03-03T19:42:04.043Z,11.98
2024-03-03T19:47:07.952Z,14.57
2024-03-03T19:52:15.396Z,10.73
2024-03-03T19:57:18.555Z,11.20
2024-03-03T20:02:22.192Z,11.85
2024-03-03T20:07:27.084Z,12.43
2024-03-03T20:12:30.381Z,10.60
2024-03-03T20:17:33.723Z,9.82
2024-03-03T20:22:38.306Z,16.00
2024-03-03T20:27:41.391Z,22.10
2024-03-03T20:32:44.832Z,34.63
2024-03-03T20:37:49.382Z,30.90
2024-03-03T20:42:53.603Z,22.48
2024-03-03T20:47:56.968Z,20.90
2024-03-03T20:53:01.632Z,24.60
2024-03-03T20:58:05.544Z,19.48
2024-03-03T21:03:08.765Z,17.38
2024-03-03T21:08:14.023Z,12.60
2024-03-03T21:13:17.093Z,12.10
2024-03-03T21:18:21.116Z,10.80
2024-03-03T21:23:28.239Z,11.63
2024-03-03T21:28:31.432Z,10.80
2024-03-03T21:33:34.375Z,12.73
2024-03-03T21:38:38.878Z,11.85
2024-03-03T21:43:41.832Z,10.68
2024-03-03T21:48:44.693Z,10.85
2024-03-03T21:53:51.146Z,11.82
2024-03-03T21:58:56.729Z,9.32
2024-03-03T22:03:59.886Z,8.30
2024-03-03T22:09:05.657Z,8.95
2024-03-03T22:14:08.821Z,10.30
2024-03-03T22:19:11.837Z,9.38
2024-03-03T22:24:16.419Z,9.05
2024-03-03T22:29:20.165Z,9.85
2024-03-03T22:34:23.212Z,9.13
2024-03-03T22:39:29.218Z,9.10
2024-03-03T22:44:32.285Z,10.05
2024-03-03T22:49:35.241Z,9.52
2024-03-03T22:54:39.682Z,10.18
2024-03-03T22:59:43.651Z,12.68
2024-03-03T23:04:49.314Z,17.48
2024-03-03T23:09:56.059Z,20.67
2024-03-03T23:14:59.751Z,19.67
2024-03-03T23:20:02.817Z,23.15
2024-03-03T23:25:08.578Z,25.90
2024-03-03T23:30:13.537Z,28.17
2024-03-03T23:35:16.618Z,29.27
2024-03-03T23:40:22.313Z,32.42
2024-03-03T23:45:26.001Z,33.95
2024-03-03T23:50:29.138Z,35.25
2024-03-03T23:55:34.011Z,35.30
